Time;durP1;ratioP1;P1;durP2;ratioP2;P2;SDS_P1;SDS_P2;PMS_P1;PMS_P2;Temp;Humidity;BMP_temperature;BMP_pressure;BME280_temperature;BME280_humidity;BME280_pressure;Samples;Min_cycle;Max_cycle;Signal;HPM_P1;HPM_P2
2022/10/13 00:00:31;;;;;;;16.80;8.52;;;9.70;99.90;;;;;;5050419;28;20041;-66
2022/10/13 00:03:00;;;;;;;21.77;9.35;;;9.70;99.90;;;;;;5050381;28;20037;-66
2022/10/13 00:05:27;;;;;;;21.63;8.65;;;9.70;99.90;;;;;;5050200;28;20037;-66
2022/10/13 00:07:53;;;;;;;13.77;7.82;;;9.80;99.90;;;;;;5050392;28;20055;-66
2022/10/13 00:10:19;;;;;;;17.00;9.07;;;9.80;99.90;;;;;;5050236;28;20525;-66
2022/10/13 00:12:45;;;;;;;16.42;9.20;;;9.80;99.90;;;;;;5050314;28;20044;-66
2022/10/13 00:15:10;;;;;;;19.83;8.50;;;9.80;99.90;;;;;;5049785;28;20493;-66
2022/10/13 00:17:36;;;;;;;19.23;8.65;;;9.80;99.90;;;;;;5050377;28;20122;-66
2022/10/13 00:20:04;;;;;;;15.32;8.25;;;9.80;99.90;;;;;;5050381;28;20033;-66
2022/10/13 00:22:29;;;;;;;18.23;8.23;;;9.80;99.90;;;;;;5050388;28;20037;-66
2022/10/13 00:24:55;;;;;;;20.38;9.05;;;9.80;99.90;;;;;;5050711;28;20033;-66
2022/10/13 00:27:20;;;;;;;19.55;8.88;;;9.80;99.90;;;;;;5053942;28;20102;-66
2022/10/13 00:29:46;;;;;;;13.95;8.57;;;9.90;99.90;;;;;;5054203;28;20089;-66
2022/10/13 00:32:11;;;;;;;22.75;10.05;;;9.80;99.90;;;;;;5054130;28;20037;-66
2022/10/13 00:34:37;;;;;;;16.25;7.97;;;9.90;99.90;;;;;;5053600;28;20048;-66
2022/10/13 00:37:03;;;;;;;19.80;9.50;;;9.90;99.90;;;;;;5053723;28;20048;-66
2022/10/13 00:39:29;;;;;;;16.90;8.52;;;9.90;99.90;;;;;;5053682;28;20068;-66
2022/10/13 00:41:57;;;;;;;17.13;9.00;;;9.90;99.90;;;;;;5053660;28;20068;-66
2022/10/13 00:44:58;;;;;;;16.75;8.18;;;9.90;99.90;;;;;;5053527;28;20037;-66
2022/10/13 00:47:29;;;;;;;16.63;8.13;;;9.90;99.90;;;;;;5068924;28;20115;-66
2022/10/13 00:49:55;;;;;;;19.13;9.77;;;9.90;99.90;;;;;;5053598;28;20078;-66
2022/10/13 00:52:22;;;;;;;17.75;8.63;;;9.90;99.90;;;;;;5053298;28;20037;-66
2022/10/13 00:54:48;;;;;;;16.52;9.60;;;9.90;99.90;;;;;;5053216;28;20463;-66
2022/10/13 00:57:14;;;;;;;15.40;7.90;;;10.00;99.90;;;;;;5053266;28;20493;-66
2022/10/13 00:59:40;;;;;;;17.45;8.27;;;10.00;99.90;;;;;;5053471;28;20045;-66
2022/10/13 01:02:06;;;;;;;18.08;8.88;;;10.00;99.90;;;;;;5053358;28;20052;-66
2022/10/13 01:04:50;;;;;;;19.77;8.45;;;10.00;99.90;;;;;;5052943;28;20041;-66
2022/10/13 01:07:18;;;;;;;18.52;9.15;;;10.00;99.90;;;;;;5053433;28;20045;-66
2022/10/13 01:09:44;;;;;;;18.20;9.30;;;10.00;99.90;;;;;;5053298;28;20049;-66
2022/10/13 01:12:41;;;;;;;19.05;9.68;;;10.00;99.90;;;;;;5053261;28;20076;-66
2022/10/13 01:15:16;;;;;;;18.40;8.85;;;10.00;99.90;;;;;;5052704;28;20049;-66
2022/10/13 01:17:47;;;;;;;13.75;8.48;;;10.10;99.90;;;;;;5053243;28;20049;-66
2022/10/13 01:20:34;;;;;;;25.33;9.45;;;10.00;99.90;;;;;;5053257;28;20262;-66
2022/10/13 01:23:21;;;;;;;23.92;10.43;;;10.00;99.90;;;;;;5052939;28;20576;-66
2022/10/13 01:26:25;;;;;;;19.52;8.90;;;10.00;99.90;;;;;;5051288;28;20037;-66
2022/10/13 01:29:13;;;;;;;14.68;8.65;;;9.90;99.90;;;;;;5052955;28;20040;-66
2022/10/13 01:31:48;;;;;;;17.95;8.60;;;9.90;99.90;;;;;;5052800;28;20040;-66
2022/10/13 01:34:45;;;;;;;16.23;8.23;;;9.90;99.90;;;;;;5052295;28;20037;-66
2022/10/13 01:37:31;;;;;;;20.13;8.23;;;9.90;99.90;;;;;;5051757;28;20520;-66
2022/10/13 01:40:18;;;;;;;20.90;9.45;;;10.00;99.90;;;;;;5052618;28;20037;-66
2022/10/13 01:42:52;;;;;;;15.85;9.07;;;9.90;99.90;;;;;;5052854;28;20069;-66
2022/10/13 01:45:24;;;;;;;24.15;10.27;;;9.90;99.90;;;;;;5052393;28;20064;-66
2022/10/13 01:47:51;;;;;;;20.90;9.68;;;9.90;99.90;;;;;;5052641;28;20049;-66
2022/10/13 01:50:19;;;;;;;23.40;9.27;;;9.90;99.90;;;;;;5052489;28;20401;-66
2022/10/13 01:52:46;;;;;;;14.95;9.07;;;9.90;99.90;;;;;;5052309;28;20508;-66
2022/10/13 01:55:12;;;;;;;23.55;9.55;;;9.90;99.90;;;;;;5052132;28;20052;-66
2022/10/13 01:57:41;;;;;;;21.23;9.25;;;9.90;99.90;;;;;;5052392;28;20037;-66
2022/10/13 02:00:10;;;;;;;19.17;9.70;;;9.90;99.90;;;;;;5052373;28;20036;-66
2022/10/13 02:03:00;;;;;;;14.77;8.98;;;9.90;99.90;;;;;;5052226;28;20086;-66
2022/10/13 02:06:01;;;;;;;20.25;9.32;;;9.90;99.90;;;;;;5051684;28;20120;-66
2022/10/13 02:08:50;;;;;;;17.05;8.73;;;9.90;99.90;;;;;;5029738;28;20041;-66
2022/10/13 02:11:19;;;;;;;20.73;9.57;;;9.90;99.90;;;;;;5050883;28;20048;-66
2022/10/13 02:13:53;;;;;;;16.50;9.73;;;10.00;99.90;;;;;;5051470;28;20048;-66
2022/10/13 02:16:22;;;;;;;16.17;9.05;;;9.90;99.90;;;;;;5052069;28;20041;-66
2022/10/13 02:18:49;;;;;;;18.85;9.90;;;10.00;99.90;;;;;;5051895;28;20091;-66
2022/10/13 02:21:15;;;;;;;20.38;9.68;;;10.00;99.90;;;;;;5051719;28;20040;-66
2022/10/13 02:23:42;;;;;;;22.50;9.52;;;10.00;99.90;;;;;;5051580;28;20090;-66
2022/10/13 02:26:08;;;;;;;18.55;9.98;;;10.00;99.90;;;;;;5051559;28;20036;-66
2022/10/13 02:28:36;;;;;;;16.17;8.85;;;10.00;99.90;;;;;;5051815;28;20045;-66
2022/10/13 02:31:02;;;;;;;19.92;10.15;;;10.00;99.90;;;;;;5051781;28;20048;-66
2022/10/13 02:33:27;;;;;;;17.58;9.25;;;10.00;99.90;;;;;;5051521;28;20040;-66
2022/10/13 02:35:53;;;;;;;16.10;9.02;;;10.00;99.90;;;;;;5051364;28;20131;-66
2022/10/13 02:38:19;;;;;;;20.67;9.13;;;10.00;99.90;;;;;;5051425;28;20115;-66
2022/10/13 02:40:45;;;;;;;24.08;10.73;;;10.00;99.90;;;;;;5051349;28;20072;-66
2022/10/13 02:43:10;;;;;;;15.88;8.77;;;10.00;99.90;;;;;;5051608;28;20036;-66
2022/10/13 02:45:36;;;;;;;15.77;9.10;;;10.10;99.90;;;;;;5051149;28;20041;-66
2022/10/13 02:48:01;;;;;;;20.85;8.98;;;10.00;99.90;;;;;;5051375;28;20059;-66
2022/10/13 02:50:28;;;;;;;18.33;9.57;;;10.00;99.90;;;;;;5050132;28;20099;-66
2022/10/13 02:52:53;;;;;;;20.60;9.32;;;10.10;99.90;;;;;;5051346;28;20409;-66
2022/10/13 02:55:19;;;;;;;19.52;9.48;;;10.10;99.90;;;;;;5050734;28;20037;-66
2022/10/13 02:57:45;;;;;;;20.67;9.73;;;10.10;99.90;;;;;;5051332;28;20083;-66
2022/10/13 03:00:11;;;;;;;20.60;9.70;;;10.20;99.90;;;;;;5051091;28;20041;-66
2022/10/13 03:02:37;;;;;;;20.13;9.63;;;10.10;99.90;;;;;;5051127;28;20079;-66
2022/10/13 03:05:02;;;;;;;17.75;8.95;;;10.20;99.90;;;;;;5050699;28;20076;-66
2022/10/13 03:07:28;;;;;;;19.98;9.90;;;10.10;99.90;;;;;;5051138;28;20045;-66
2022/10/13 03:09:53;;;;;;;24.70;9.10;;;10.20;99.90;;;;;;5050952;28;20537;-66
2022/10/13 03:12:19;;;;;;;20.40;9.38;;;10.20;99.90;;;;;;5051190;28;20080;-66
2022/10/13 03:14:44;;;;;;;20.70;9.75;;;10.20;99.90;;;;;;5050565;28;20135;-66
2022/10/13 03:17:10;;;;;;;21.58;10.05;;;10.20;99.90;;;;;;5050981;28;20074;-66
2022/10/13 03:19:36;;;;;;;20.42;9.60;;;10.30;99.90;;;;;;5050998;28;20204;-66
2022/10/13 03:22:01;;;;;;;20.05;8.73;;;10.20;99.90;;;;;;5050863;28;20029;-66
2022/10/13 03:24:27;;;;;;;18.45;9.10;;;10.20;99.90;;;;;;5050346;28;20048;-66
2022/10/13 03:26:53;;;;;;;22.40;9.80;;;10.30;99.90;;;;;;5050966;28;20509;-66
2022/10/13 03:29:19;;;;;;;17.02;10.05;;;10.30;99.90;;;;;;5050933;28;20567;-66
2022/10/13 03:31:44;;;;;;;21.60;9.57;;;10.30;99.90;;;;;;5050862;28;20052;-66
2022/10/13 03:34:11;;;;;;;20.13;10.25;;;10.30;99.90;;;;;;5050445;28;20061;-66
2022/10/13 03:36:37;;;;;;;22.27;9.68;;;10.30;99.90;;;;;;5050689;28;20041;-66
2022/10/13 03:39:03;;;;;;;18.67;9.15;;;10.30;99.90;;;;;;5050529;28;20037;-66
2022/10/13 03:41:28;;;;;;;22.08;10.10;;;10.40;99.90;;;;;;5050896;28;20374;-66
2022/10/13 03:43:54;;;;;;;17.95;9.93;;;10.40;99.90;;;;;;5050434;28;20120;-66
2022/10/13 03:46:27;;;;;;;20.20;10.55;;;10.30;99.90;;;;;;5050744;28;20497;-66
2022/10/13 03:48:53;;;;;;;20.85;9.20;;;10.40;99.90;;;;;;5050707;28;20099;-66
2022/10/13 03:51:21;;;;;;;19.33;10.85;;;10.40;99.90;;;;;;5050660;28;20048;-66
2022/10/13 03:53:47;;;;;;;17.75;10.20;;;10.40;99.90;;;;;;5048901;28;20052;-66
2022/10/13 03:56:16;;;;;;;19.50;10.05;;;10.40;99.90;;;;;;5050754;28;20048;-66
2022/10/13 03:58:42;;;;;;;23.38;10.55;;;10.30;99.90;;;;;;5050540;28;20045;-66
2022/10/13 04:01:09;;;;;;;20.02;9.90;;;10.40;99.90;;;;;;5053435;28;20037;-66
2022/10/13 04:03:35;;;;;;;21.25;9.65;;;10.40;99.90;;;;;;5054375;28;20087;-66
2022/10/13 04:06:03;;;;;;;18.10;9.75;;;10.40;99.90;;;;;;5054074;28;20080;-66
2022/10/13 04:08:30;;;;;;;21.23;9.88;;;10.40;99.90;;;;;;5054265;28;20037;-66
2022/10/13 04:11:00;;;;;;;18.25;9.38;;;10.40;99.90;;;;;;5054438;28;20075;-66
2022/10/13 04:13:25;;;;;;;17.75;10.05;;;10.40;99.90;;;;;;5054129;28;20580;-66
2022/10/13 04:15:51;;;;;;;20.92;10.38;;;10.40;99.90;;;;;;5054037;28;20117;-66
2022/10/13 04:18:16;;;;;;;19.55;10.80;;;10.40;99.90;;;;;;5054016;28;20509;-66
2022/10/13 04:20:42;;;;;;;20.30;9.98;;;10.40;99.90;;;;;;5053931;28;20047;-66
2022/10/13 04:23:07;;;;;;;17.60;9.90;;;10.40;99.90;;;;;;5054296;28;20044;-66
2022/10/13 04:25:35;;;;;;;21.02;10.07;;;10.30;99.90;;;;;;5053761;28;20044;-66
2022/10/13 04:28:02;;;;;;;20.67;10.35;;;10.40;99.90;;;;;;5060092;28;20048;-67
2022/10/13 04:30:28;;;;;;;24.27;10.65;;;10.40;99.90;;;;;;5073831;28;20078;-67
2022/10/13 04:32:53;;;;;;;24.75;10.55;;;10.30;99.90;;;;;;5073814;28;20083;-66
2022/10/13 04:35:19;;;;;;;19.08;10.43;;;10.30;99.90;;;;;;5072319;28;20442;-66
2022/10/13 04:37:44;;;;;;;17.95;10.18;;;10.40;99.90;;;;;;5073881;28;20046;-66
2022/10/13 04:40:10;;;;;;;27.70;11.73;;;10.40;99.90;;;;;;5073800;28;20593;-66
2022/10/13 04:42:36;;;;;;;24.27;10.05;;;10.40;99.90;;;;;;5073802;28;20033;-66
2022/10/13 04:45:01;;;;;;;20.65;9.88;;;10.40;99.90;;;;;;5073337;28;20068;-66
2022/10/13 04:47:28;;;;;;;20.70;10.27;;;10.40;99.90;;;;;;5073539;28;20051;-66
2022/10/13 04:49:53;;;;;;;22.95;11.48;;;10.40;99.90;;;;;;5073373;28;20036;-66
2022/10/13 04:52:19;;;;;;;21.65;11.63;;;10.40;99.90;;;;;;5073705;28;20124;-66
2022/10/13 04:54:44;;;;;;;20.08;11.05;;;10.40;99.90;;;;;;5073340;28;20439;-66
2022/10/13 04:57:10;;;;;;;17.23;9.88;;;10.40;99.90;;;;;;5073290;28;20053;-66
2022/10/13 04:59:35;;;;;;;24.30;10.18;;;10.40;99.90;;;;;;5073496;28;20127;-66
2022/10/13 05:02:02;;;;;;;26.05;10.68;;;10.40;99.90;;;;;;5073415;28;20046;-66
2022/10/13 05:04:27;;;;;;;21.10;11.00;;;10.40;99.90;;;;;;5072842;28;20037;-66
2022/10/13 05:06:54;;;;;;;20.98;10.60;;;10.40;99.90;;;;;;5072290;28;20098;-66
2022/10/13 05:09:21;;;;;;;20.10;10.68;;;10.40;99.90;;;;;;5073395;28;20040;-66
2022/10/13 05:11:46;;;;;;;24.55;11.45;;;10.40;99.90;;;;;;5072063;28;20075;-66
2022/10/13 05:14:12;;;;;;;19.85;10.18;;;10.40;99.90;;;;;;5072762;28;20079;-66
2022/10/13 05:16:38;;;;;;;21.80;11.25;;;10.40;99.90;;;;;;5073040;28;20121;-66
2022/10/13 05:19:03;;;;;;;18.38;10.77;;;10.40;99.90;;;;;;5071760;28;20443;-66
2022/10/13 05:21:29;;;;;;;21.17;11.07;;;10.40;99.90;;;;;;5073254;28;20068;-66
2022/10/13 05:23:55;;;;;;;21.17;11.10;;;10.40;99.90;;;;;;5072543;28;20036;-66
2022/10/13 05:26:27;;;;;;;21.38;10.57;;;10.40;99.90;;;;;;5073093;28;20401;-66
2022/10/13 05:28:54;;;;;;;18.27;11.00;;;10.40;99.90;;;;;;5072937;28;20085;-66
2022/10/13 05:31:22;;;;;;;21.55;11.85;;;10.40;99.90;;;;;;5072766;28;20037;-66
2022/10/13 05:33:49;;;;;;;20.85;10.23;;;10.40;99.90;;;;;;5072346;28;20413;-66
2022/10/13 05:36:17;;;;;;;18.92;10.45;;;10.40;99.90;;;;;;5072852;28;20033;-66
2022/10/13 05:38:43;;;;;;;26.42;10.55;;;10.40;99.90;;;;;;5072792;28;20444;-66
2022/10/13 05:41:11;;;;;;;19.10;10.40;;;10.40;99.90;;;;;;5072697;28;20078;-66
2022/10/13 05:43:39;;;;;;;24.23;11.18;;;10.40;99.90;;;;;;5072619;28;20114;-66
2022/10/13 05:46:05;;;;;;;17.08;10.68;;;10.40;99.90;;;;;;5072210;28;20122;-66
2022/10/13 05:48:30;;;;;;;20.60;10.85;;;10.40;99.90;;;;;;5072724;28;20046;-66
2022/10/13 05:50:59;;;;;;;25.20;12.30;;;10.40;99.90;;;;;;5072372;28;20036;-66
2022/10/13 05:53:29;;;;;;;21.98;11.88;;;10.40;99.90;;;;;;5071339;28;20079;-66
2022/10/13 05:55:57;;;;;;;24.67;10.90;;;10.40;99.90;;;;;;5072158;28;20036;-66
2022/10/13 05:58:24;;;;;;;21.88;11.52;;;10.40;99.90;;;;;;5072252;28;20127;-66
2022/10/13 06:00:50;;;;;;;26.23;10.82;;;10.40;99.90;;;;;;5072175;28;20040;-66
2022/10/13 06:03:21;;;;;;;19.02;10.23;;;10.40;99.90;;;;;;5072340;28;20090;-66
2022/10/13 06:05:47;;;;;;;18.85;10.73;;;10.40;99.90;;;;;;5071919;28;20040;-66
2022/10/13 06:08:14;;;;;;;20.15;10.40;;;10.50;99.90;;;;;;5070870;28;20055;-66
2022/10/13 06:10:41;;;;;;;19.38;10.73;;;10.50;99.90;;;;;;5069151;28;20044;-66
2022/10/13 06:13:07;;;;;;;24.48;11.85;;;10.50;99.90;;;;;;5070631;28;20082;-66
2022/10/13 06:15:33;;;;;;;18.88;10.88;;;10.50;99.90;;;;;;5070382;28;20084;-66
2022/10/13 06:17:58;;;;;;;21.95;11.15;;;10.50;99.90;;;;;;5071950;28;20075;-66
2022/10/13 06:20:26;;;;;;;21.88;11.20;;;10.50;99.90;;;;;;5071994;28;20505;-66
2022/10/13 06:22:53;;;;;;;24.02;11.82;;;10.50;99.90;;;;;;5071521;28;20047;-66
2022/10/13 06:25:19;;;;;;;25.02;11.30;;;10.50;99.90;;;;;;5062902;28;20041;-66
2022/10/13 06:27:44;;;;;;;21.45;11.45;;;10.50;99.90;;;;;;5050569;28;20486;-66
2022/10/13 06:30:10;;;;;;;22.48;10.43;;;10.50;99.90;;;;;;5051663;28;20132;-66
2022/10/13 06:32:36;;;;;;;21.33;10.45;;;10.50;99.90;;;;;;5051927;28;20041;-66
2022/10/13 06:35:02;;;;;;;19.10;10.88;;;10.50;99.90;;;;;;5051255;28;20049;-66
2022/10/13 06:37:27;;;;;;;20.05;11.75;;;10.50;99.90;;;;;;5051625;28;20064;-66
2022/10/13 06:39:53;;;;;;;22.70;11.18;;;10.50;99.90;;;;;;5051637;28;20037;-66
2022/10/13 06:42:18;;;;;;;23.35;11.00;;;10.50;99.90;;;;;;5050209;28;20036;-66
2022/10/13 06:44:44;;;;;;;25.10;12.07;;;10.50;99.90;;;;;;5050983;28;20404;-66
2022/10/13 06:47:09;;;;;;;18.25;11.45;;;10.50;99.90;;;;;;5051683;28;20130;-66
2022/10/13 06:49:35;;;;;;;26.95;11.65;;;10.50;99.90;;;;;;5051557;28;20067;-66
2022/10/13 06:52:01;;;;;;;20.35;11.43;;;10.50;99.90;;;;;;5051522;28;20048;-66
2022/10/13 06:54:26;;;;;;;22.10;10.98;;;10.50;99.90;;;;;;5051089;28;20171;-66
2022/10/13 06:56:52;;;;;;;25.77;11.63;;;10.50;99.90;;;;;;5051258;28;20471;-66
2022/10/13 06:59:18;;;;;;;25.70;12.32;;;10.50;99.90;;;;;;5051189;28;20076;-66
2022/10/13 07:01:43;;;;;;;20.25;10.88;;;10.50;99.90;;;;;;5050113;28;20053;-66
2022/10/13 07:04:09;;;;;;;23.65;12.25;;;10.60;99.90;;;;;;5050993;28;20121;-65
2022/10/13 07:06:34;;;;;;;21.13;11.40;;;10.60;99.90;;;;;;5051217;28;20044;-65
2022/10/13 07:09:04;;;;;;;23.88;11.50;;;10.70;99.90;;;;;;5051118;28;20087;-66
2022/10/13 07:11:30;;;;;;;30.40;12.85;;;10.70;99.90;;;;;;5050927;28;20036;-66
2022/10/13 07:13:55;;;;;;;23.98;12.32;;;10.70;99.90;;;;;;5050546;28;20043;-66
2022/10/13 07:16:21;;;;;;;31.70;13.18;;;10.80;99.90;;;;;;5051142;28;20032;-66
2022/10/13 07:18:47;;;;;;;25.50;12.02;;;10.80;99.90;;;;;;5051019;28;20044;-66
2022/10/13 07:21:13;;;;;;;20.85;11.55;;;10.80;99.90;;;;;;5051022;28;20037;-66
2022/10/13 07:23:38;;;;;;;23.65;12.15;;;10.80;99.90;;;;;;5050852;28;20508;-66
2022/10/13 07:26:13;;;;;;;22.30;11.75;;;10.90;99.90;;;;;;5049543;28;20032;-66
2022/10/13 07:28:39;;;;;;;22.70;11.90;;;10.90;99.90;;;;;;5051044;28;20401;-66
2022/10/13 07:31:17;;;;;;;23.02;11.15;;;10.90;99.90;;;;;;5050505;28;20043;-66
2022/10/13 07:33:45;;;;;;;21.98;11.32;;;11.00;99.90;;;;;;5050647;28;20472;-66
2022/10/13 07:36:11;;;;;;;20.90;11.50;;;11.00;99.90;;;;;;5050097;28;20055;-66
2022/10/13 07:38:37;;;;;;;19.15;11.43;;;11.00;99.90;;;;;;5053191;28;20032;-68
2022/10/13 07:41:05;;;;;;;25.58;11.60;;;11.10;99.90;;;;;;5070734;28;20049;-69
2022/10/13 07:43:30;;;;;;;26.00;12.15;;;11.10;99.90;;;;;;5070813;28;20052;-67
2022/10/13 07:46:03;;;;;;;21.00;10.82;;;11.20;99.90;;;;;;5070375;28;20036;-67
2022/10/13 07:48:29;;;;;;;;;;;11.20;99.90;;;;;;5071192;28;20458;-67
2022/10/13 07:50:54;;;;;;;25.17;11.38;;;11.30;99.90;;;;;;5070734;28;20007;-67
2022/10/13 07:53:20;;;;;;;22.88;11.65;;;11.30;99.90;;;;;;5070875;28;20417;-67
2022/10/13 07:55:45;;;;;;;25.58;11.93;;;11.30;99.90;;;;;;5070428;28;20097;-67
2022/10/13 07:58:11;;;;;;;22.60;11.43;;;11.40;99.90;;;;;;5070418;28;20051;-67
2022/10/13 08:00:36;;;;;;;23.88;11.75;;;11.40;99.90;;;;;;5070673;28;20037;-67
2022/10/13 08:03:02;;;;;;;24.75;11.57;;;11.50;99.90;;;;;;5070570;28;20497;-67
2022/10/13 08:05:28;;;;;;;25.52;12.02;;;11.50;99.90;;;;;;5070078;28;20401;-67
2022/10/13 08:07:53;;;;;;;28.17;12.88;;;11.60;99.90;;;;;;5070740;28;20040;-67
2022/10/13 08:10:20;;;;;;;23.58;12.48;;;11.60;99.90;;;;;;5070862;28;20044;-67
2022/10/13 08:12:45;;;;;;;26.63;12.77;;;11.60;99.90;;;;;;5070677;28;20052;-67
2022/10/13 08:15:11;;;;;;;26.77;12.60;;;11.60;99.90;;;;;;5070147;28;20128;-67
2022/10/13 08:17:36;;;;;;;22.25;11.88;;;11.70;99.90;;;;;;5070514;28;20494;-67
2022/10/13 08:20:04;;;;;;;27.67;11.75;;;11.70;99.90;;;;;;5070496;28;20095;-67
2022/10/13 08:22:29;;;;;;;22.88;12.40;;;11.70;99.90;;;;;;5070597;28;20033;-67
2022/10/13 08:24:55;;;;;;;25.13;12.25;;;11.80;99.90;;;;;;5070170;28;20044;-67
2022/10/13 08:27:23;;;;;;;24.15;12.20;;;11.80;99.90;;;;;;5070081;28;20040;-67
2022/10/13 08:29:49;;;;;;;24.70;11.93;;;11.80;99.90;;;;;;5070316;28;20123;-67
2022/10/13 08:32:15;;;;;;;25.15;12.60;;;11.90;99.90;;;;;;5069784;28;20778;-67
2022/10/13 08:34:40;;;;;;;28.70;12.15;;;11.90;99.90;;;;;;5070156;28;20106;-67
2022/10/13 08:37:13;;;;;;;23.15;12.65;;;11.90;99.90;;;;;;5070424;28;20484;-67
2022/10/13 08:39:38;;;;;;;28.08;13.25;;;12.00;99.90;;;;;;5070301;28;20033;-67
2022/10/13 08:42:13;;;;;;;24.77;12.13;;;12.00;99.90;;;;;;5070196;28;20546;-67
2022/10/13 08:44:42;;;;;;;33.20;13.63;;;12.10;99.90;;;;;;5069855;28;20041;-67
2022/10/13 08:47:21;;;;;;;29.85;13.32;;;12.20;99.90;;;;;;5072656;28;20054;-67
2022/10/13 08:49:47;;;;;;;31.85;12.82;;;12.20;99.90;;;;;;5073823;28;20036;-67
2022/10/13 08:52:20;;;;;;;28.10;12.50;;;12.20;99.90;;;;;;5073751;28;20116;-67
2022/10/13 08:54:45;;;;;;;;;;;12.30;99.90;;;;;;5072226;28;20106;-67
2022/10/13 08:57:11;;;;;;;22.38;11.73;;;12.40;99.90;;;;;;5073462;28;20396;-67
2022/10/13 08:59:37;;;;;;;23.85;12.70;;;12.30;99.90;;;;;;5073742;28;20040;-67
2022/10/13 09:02:13;;;;;;;24.75;12.43;;;12.30;99.90;;;;;;5073385;28;20036;-67
2022/10/13 09:04:42;;;;;;;27.92;12.50;;;12.30;99.90;;;;;;5073230;28;20082;-67
2022/10/13 09:07:08;;;;;;;26.48;12.02;;;12.40;99.90;;;;;;5073427;28;20492;-67
2022/10/13 09:09:34;;;;;;;28.08;12.02;;;12.40;99.90;;;;;;5073353;28;20120;-67
2022/10/13 09:12:00;;;;;;;31.48;13.30;;;12.50;99.90;;;;;;5073145;28;20461;-67
2022/10/13 09:14:31;;;;;;;25.48;12.82;;;12.50;99.90;;;;;;5071649;28;20051;-67
2022/10/13 09:17:19;;;;;;;23.40;13.25;;;12.50;99.90;;;;;;5071818;28;20041;-67
2022/10/13 09:20:05;;;;;;;21.63;11.80;;;12.50;99.90;;;;;;5071865;28;20128;-67
2022/10/13 09:22:36;;;;;;;23.80;12.32;;;12.60;99.90;;;;;;5073237;28;20089;-67
2022/10/13 09:25:14;;;;;;;23.70;12.40;;;12.50;99.90;;;;;;5071513;28;20477;-67
2022/10/13 09:27:51;;;;;;;24.75;12.02;;;12.60;99.90;;;;;;5072955;28;20484;-67
2022/10/13 09:30:40;;;;;;;24.55;11.63;;;12.60;99.90;;;;;;5072375;28;20119;-67
2022/10/13 09:33:17;;;;;;;23.45;12.35;;;12.60;99.90;;;;;;5073052;28;20079;-67
2022/10/13 09:35:46;;;;;;;24.73;12.80;;;12.60;99.90;;;;;;5072574;28;20033;-67
2022/10/13 09:38:21;;;;;;;24.60;12.50;;;12.60;99.90;;;;;;5072726;28;20090;-67
2022/10/13 09:41:09;;;;;;;20.17;11.32;;;12.60;99.90;;;;;;5072714;28;20110;-67
2022/10/13 09:43:37;;;;;;;28.95;13.38;;;12.60;99.90;;;;;;5072731;28;20040;-67
2022/10/13 09:46:12;;;;;;;24.55;12.05;;;12.70;99.90;;;;;;5072559;28;20041;-67
2022/10/13 09:48:41;;;;;;;22.10;12.20;;;12.70;99.90;;;;;;5072650;28;20044;-67
2022/10/13 09:51:38;;;;;;;24.10;12.52;;;12.70;99.90;;;;;;5072469;28;20507;-67
2022/10/13 09:54:06;;;;;;;24.23;11.65;;;12.70;99.90;;;;;;5071653;28;20107;-67
2022/10/13 09:56:42;;;;;;;26.05;13.05;;;12.80;99.90;;;;;;5072007;28;20036;-66
2022/10/13 09:59:29;;;;;;;25.73;12.15;;;12.80;99.90;;;;;;5071708;28;20032;-67
2022/10/13 10:01:57;;;;;;;27.30;12.82;;;12.90;99.90;;;;;;5072558;28;20062;-67
2022/10/13 10:04:34;;;;;;;24.55;13.10;;;12.90;99.90;;;;;;5070557;28;20105;-67
2022/10/13 10:07:04;;;;;;;27.65;14.02;;;12.90;99.90;;;;;;5072345;28;20040;-67
2022/10/13 10:09:40;;;;;;;25.52;13.50;;;12.90;99.90;;;;;;5072232;28;20037;-66
2022/10/13 10:12:10;;;;;;;27.27;12.52;;;13.00;99.90;;;;;;5070825;28;20048;-65
2022/10/13 10:14:37;;;;;;;27.15;13.98;;;13.00;99.90;;;;;;5071641;28;20040;-67
2022/10/13 10:17:14;;;;;;;26.98;13.40;;;13.40;99.90;;;;;;5070633;28;20040;-70
2022/10/13 10:20:16;;;;;;;27.00;13.48;;;13.40;99.90;;;;;;5054228;28;20611;-70
2022/10/13 10:23:04;;;;;;;24.70;12.82;;;13.50;99.90;;;;;;5070622;28;20124;-67
2022/10/13 10:25:32;;;;;;;29.55;13.90;;;13.50;99.90;;;;;;5067885;28;20037;-70
2022/10/13 10:27:57;;;;;;;31.10;14.38;;;13.70;99.90;;;;;;5060352;28;20041;-70
2022/10/13 10:30:23;;;;;;;30.83;14.13;;;13.70;99.90;;;;;;5069859;28;20044;-69
2022/10/13 10:33:10;;;;;;;31.95;12.88;;;13.70;99.90;;;;;;5071154;28;20558;-70
2022/10/13 10:35:44;;;;;;;26.15;14.32;;;13.80;99.90;;;;;;5070959;28;20044;-70
2022/10/13 10:38:27;;;;;;;27.13;14.15;;;13.80;99.90;;;;;;5069456;28;20487;-70
2022/10/13 10:41:05;;;;;;;25.35;14.60;;;14.00;99.90;;;;;;5069999;28;20123;-70
2022/10/13 10:43:39;;;;;;;28.33;14.18;;;14.10;99.90;;;;;;5071587;28;20033;-70
2022/10/13 10:46:13;;;;;;;25.42;14.05;;;14.10;99.90;;;;;;5069921;28;20458;-67
2022/10/13 10:48:40;;;;;;;30.98;13.88;;;14.10;99.90;;;;;;5071400;28;20127;-67
2022/10/13 10:51:08;;;;;;;26.67;13.18;;;14.00;99.90;;;;;;5071333;28;20416;-67
2022/10/13 10:53:59;;;;;;;25.73;14.13;;;14.10;99.90;;;;;;5071152;28;20044;-67
2022/10/13 10:56:43;;;;;;;23.00;13.65;;;14.10;99.90;;;;;;5071076;28;20123;-67
2022/10/13 10:59:26;;;;;;;25.90;14.65;;;14.10;99.90;;;;;;5071292;28;20554;-67
2022/10/13 11:02:01;;;;;;;25.42;13.95;;;14.20;99.90;;;;;;5071181;28;20101;-67
2022/10/13 11:04:47;;;;;;;20.63;12.90;;;14.20;99.90;;;;;;5070802;28;20044;-67
2022/10/13 11:07:33;;;;;;;24.45;13.57;;;14.20;99.90;;;;;;5071206;28;20078;-67
2022/10/13 11:09:58;;;;;;;25.48;13.32;;;14.20;99.90;;;;;;5069454;28;20139;-67
2022/10/13 11:12:25;;;;;;;28.30;13.40;;;14.20;99.90;;;;;;5071009;28;20049;-67
2022/10/13 11:14:53;;;;;;;28.63;13.05;;;14.20;99.90;;;;;;5070553;28;20055;-67
2022/10/13 11:17:30;;;;;;;23.58;12.88;;;14.30;99.90;;;;;;5071161;28;20045;-67
2022/10/13 11:19:56;;;;;;;26.30;13.13;;;14.20;99.90;;;;;;5070960;28;20515;-67
2022/10/13 11:22:26;;;;;;;28.05;13.30;;;14.20;99.90;;;;;;5070962;28;20043;-67
2022/10/13 11:24:55;;;;;;;26.45;14.48;;;14.20;99.90;;;;;;5070206;28;20449;-67
2022/10/13 11:27:46;;;;;;;26.27;14.13;;;14.20;99.90;;;;;;5069101;28;20044;-67
2022/10/13 11:30:46;;;;;;;24.55;13.60;;;14.20;99.90;;;;;;5068933;28;20133;-67
2022/10/13 11:33:46;;;;;;;22.23;12.40;;;14.20;99.90;;;;;;5070870;28;20102;-67
2022/10/13 11:36:30;;;;;;;27.23;13.07;;;14.20;99.90;;;;;;5048121;28;20122;-66
2022/10/13 11:39:26;;;;;;;21.90;12.18;;;14.20;99.90;;;;;;5031599;28;20122;-68
2022/10/13 11:42:27;;;;;;;24.52;12.70;;;14.20;99.90;;;;;;5027386;28;20091;-67
2022/10/13 11:44:56;;;;;;;26.65;13.30;;;14.20;99.90;;;;;;5021861;28;20049;-67
2022/10/13 11:47:47;;;;;;;23.05;12.63;;;14.10;99.90;;;;;;5028191;28;20510;-68
2022/10/13 11:50:19;;;;;;;25.45;12.90;;;14.20;99.90;;;;;;5028447;28;20041;-71
2022/10/13 11:53:12;;;;;;;21.08;12.02;;;14.20;99.90;;;;;;5027703;28;20049;-71
2022/10/13 11:55:57;;;;;;;23.60;12.98;;;14.10;99.90;;;;;;5031212;28;20458;-71
2022/10/13 11:58:26;;;;;;;24.25;12.70;;;14.10;99.90;;;;;;5027768;28;20057;-71
2022/10/13 12:00:58;;;;;;;26.20;13.30;;;14.20;99.90;;;;;;5028329;28;20045;-71
2022/10/13 12:03:36;;;;;;;26.90;14.05;;;14.20;99.90;;;;;;5011737;28;20046;-71
2022/10/13 12:06:25;;;;;;;24.15;13.10;;;14.20;99.90;;;;;;5043921;28;20501;-71
2022/10/13 12:08:51;;;;;;;23.48;13.77;;;14.20;99.90;;;;;;5020845;28;20132;-71
2022/10/13 12:11:24;;;;;;;25.13;13.27;;;14.20;99.90;;;;;;5038945;28;20129;-71
2022/10/13 12:13:50;;;;;;;27.08;13.30;;;14.10;99.90;;;;;;5066143;28;20080;-71
2022/10/13 12:16:17;;;;;;;24.42;13.50;;;14.00;99.90;;;;;;5068947;28;20485;-71
2022/10/13 12:18:42;;;;;;;24.90;13.35;;;14.00;99.90;;;;;;5068516;28;20040;-71
2022/10/13 12:21:21;;;;;;;31.52;15.00;;;14.00;99.90;;;;;;5070108;28;20584;-72
2022/10/13 12:23:49;;;;;;;29.45;13.77;;;14.00;99.90;;;;;;5072044;28;20503;-73
2022/10/13 12:26:21;;;;;;;30.08;14.73;;;13.90;99.90;;;;;;5074215;28;20480;-71
2022/10/13 12:28:54;;;;;;;26.10;14.10;;;13.90;99.90;;;;;;5072943;28;20445;-72
2022/10/13 12:31:28;;;;;;;26.08;14.52;;;13.80;99.90;;;;;;5072697;28;20040;-72
2022/10/13 12:33:59;;;;;;;29.08;14.95;;;13.80;99.90;;;;;;5072277;28;20535;-72
2022/10/13 12:36:29;;;;;;;31.85;16.42;;;13.70;99.90;;;;;;5072575;28;20087;-71
2022/10/13 12:39:02;;;;;;;29.45;15.40;;;13.70;99.90;;;;;;5072612;28;20410;-68
2022/10/13 12:41:31;;;;;;;31.77;16.00;;;13.70;99.90;;;;;;5073670;28;20114;-70
2022/10/13 12:43:57;;;;;;;28.05;14.63;;;13.90;99.90;;;;;;5073632;28;20086;-69
2022/10/13 12:46:46;;;;;;;29.70;16.50;;;13.90;99.90;;;;;;5073886;28;20028;-69